createdAt,value
2017-07-18T00:00:01.525Z,48.8
2017-07-18T00:01:03.300Z,48.8
2017-07-18T00:02:05.098Z,48.9
2017-07-18T00:03:07.235Z,49.1
2017-07-18T00:04:08.679Z,48.7
2017-07-18T00:05:09.818Z,48.6
2017-07-18T00:06:11.969Z,48.7
2017-07-18T00:07:13.446Z,48.7
2017-07-18T00:08:15.231Z,48.7
2017-07-18T00:09:16.680Z,48.7
2017-07-18T00:10:18.481Z,49
2017-07-18T00:11:19.595Z,48.7
2017-07-18T00:12:21.724Z,48.6
2017-07-18T00:13:23.881Z,48.8
2017-07-18T00:14:24.992Z,48.8
2017-07-18T00:15:26.814Z,48.9
2017-07-18T00:16:28.615Z,48.7
2017-07-18T00:17:30.417Z,48.8
2017-07-18T00:18:31.881Z,48.9
2017-07-18T00:19:34.018Z,49.1
2017-07-18T00:20:35.464Z,49
2017-07-18T00:21:37.596Z,48.7
2017-07-18T00:22:39.396Z,48.9
2017-07-18T00:23:41.528Z,48.7
2017-07-18T00:24:43.662Z,48.7
2017-07-18T00:25:45.436Z,49.1
2017-07-18T00:26:47.239Z,48.9
2017-07-18T00:27:49.036Z,48.9
2017-07-18T00:28:51.168Z,48.9
2017-07-18T00:29:52.969Z,48.9
2017-07-18T00:30:54.416Z,49.1
2017-07-18T00:31:56.192Z,48.8
2017-07-18T00:32:58.327Z,48.7
2017-07-18T00:34:00.127Z,49
2017-07-18T00:35:01.927Z,49.1
2017-07-18T00:36:04.059Z,49.1
2017-07-18T00:37:05.843Z,49
2017-07-18T00:38:07.621Z,48.8
2017-07-18T00:39:09.753Z,48.6
2017-07-18T00:40:11.217Z,48.8
2017-07-18T00:41:13.346Z,48.8
2017-07-18T00:42:15.125Z,48.8
2017-07-18T00:43:16.593Z,49.1
2017-07-18T00:44:18.059Z,48.6
2017-07-18T00:45:19.862Z,48.7
2017-07-18T00:46:21.669Z,48.7
2017-07-18T00:47:23.795Z,49.1
2017-07-18T00:48:25.576Z,48.8
2017-07-18T00:49:27.704Z,49.2
2017-07-18T00:50:29.505Z,49.1
2017-07-18T00:51:31.311Z,49
2017-07-18T00:52:32.782Z,48.8
2017-07-18T00:53:34.582Z,48.7
2017-07-18T00:54:36.715Z,49.1
2017-07-18T00:55:38.847Z,49
2017-07-18T00:56:40.640Z,48.8
2017-07-18T00:57:42.085Z,48.9
2017-07-18T00:58:44.220Z,48.7
2017-07-18T00:59:46.365Z,48.9
2017-07-18T01:00:48.163Z,48.9
2017-07-18T01:01:50.296Z,48.7
2017-07-18T01:02:52.428Z,48.9
2017-07-18T01:03:53.894Z,49.1
2017-07-18T01:04:56.022Z,49.1
2017-07-18T01:05:57.491Z,48.9
2017-07-18T01:06:58.935Z,49.1
2017-07-18T01:08:01.066Z,49.2
2017-07-18T01:09:03.197Z,49.1
2017-07-18T01:10:04.996Z,49
2017-07-18T01:11:07.128Z,49
2017-07-18T01:12:09.261Z,49.1
2017-07-18T01:13:10.715Z,49.1
2017-07-18T01:14:12.493Z,49
2017-07-18T01:15:14.277Z,49.2
2017-07-18T01:16:16.470Z,48.9
2017-07-18T01:17:18.605Z,48.9
2017-07-18T01:18:20.404Z,49
2017-07-18T01:19:22.559Z,49
2017-07-18T01:20:24.361Z,49.2
2017-07-18T01:21:25.829Z,49.1
2017-07-18T01:22:27.635Z,49.1
2017-07-18T01:23:29.765Z,49.2
2017-07-18T01:24:31.563Z,49.2
2017-07-18T01:25:33.695Z,49.2
2017-07-18T01:26:35.162Z,49.2
2017-07-18T01:27:37.290Z,49.2
2017-07-18T01:28:39.419Z,49
2017-07-18T01:29:41.552Z,49.1
2017-07-18T01:30:43.682Z,49.2
2017-07-18T01:31:45.814Z,49
2017-07-18T01:32:47.944Z,49.3
2017-07-18T01:33:49.395Z,49.1
2017-07-18T01:34:51.543Z,49.1
2017-07-18T01:35:53.001Z,49.1
2017-07-18T01:36:55.133Z,49
2017-07-18T01:37:56.576Z,49.1
2017-07-18T01:38:58.714Z,49.2
2017-07-18T01:40:00.844Z,49
2017-07-18T01:41:02.324Z,49
2017-07-18T01:42:04.456Z,49
2017-07-18T01:43:05.925Z,49.1
2017-07-18T01:44:07.387Z,49.3
2017-07-18T01:45:09.520Z,49
2017-07-18T01:46:11.660Z,49
2017-07-18T01:47:13.094Z,49
2017-07-18T01:48:15.225Z,49.2
2017-07-18T01:49:17.026Z,49
2017-07-18T01:50:18.839Z,49
2017-07-18T01:51:20.317Z,48.9
2017-07-18T01:52:22.106Z,49
2017-07-18T01:53:23.915Z,49
2017-07-18T01:54:25.689Z,49
2017-07-18T01:55:27.820Z,49
2017-07-18T01:56:29.953Z,49.2
2017-07-18T01:57:31.747Z,49
2017-07-18T01:58:33.888Z,49
2017-07-18T01:59:35.351Z,49.1
2017-07-18T02:00:37.491Z,49.1
2017-07-18T02:01:39.292Z,49
2017-07-18T02:02:41.427Z,49.1
2017-07-18T02:03:43.558Z,49.1
2017-07-18T02:04:45.357Z,49.2
2017-07-18T02:05:47.153Z,49
2017-07-18T02:06:48.939Z,49
2017-07-18T02:07:50.076Z,49.2
2017-07-18T02:08:52.213Z,49.2
2017-07-18T02:09:53.670Z,49
2017-07-18T02:10:55.802Z,49.3
2017-07-18T02:11:57.578Z,49.1
2017-07-18T02:12:59.376Z,49.1
2017-07-18T02:14:01.175Z,49.1
2017-07-18T02:15:02.977Z,49
2017-07-18T02:16:05.109Z,49
2017-07-18T02:17:07.257Z,49.1
2017-07-18T02:18:09.071Z,49
2017-07-18T02:19:11.202Z,49
2017-07-18T02:20:12.649Z,49.1
2017-07-18T02:21:14.446Z,49.3
2017-07-18T02:22:15.925Z,49.1
2017-07-18T02:23:17.357Z,49.2
2017-07-18T02:24:18.493Z,49.1
2017-07-18T02:25:20.625Z,49.1
2017-07-18T02:26:22.766Z,49.1
2017-07-18T02:27:24.559Z,49.3
2017-07-18T02:28:26.342Z,49.1
2017-07-18T02:29:28.533Z,49.3
2017-07-18T02:30:30.330Z,49
2017-07-18T02:31:31.119Z,49.2
2017-07-18T02:32:33.257Z,49
2017-07-18T02:33:35.384Z,49.1
2017-07-18T02:34:37.182Z,49.1
2017-07-18T02:35:39.317Z,49.1
2017-07-18T02:36:41.087Z,49.4
2017-07-18T02:37:43.218Z,49.2
2017-07-18T02:38:44.998Z,49.3
2017-07-18T02:39:46.462Z,49.3
2017-07-18T02:40:48.260Z,49.1
2017-07-18T02:41:50.390Z,49
2017-07-18T02:42:51.861Z,49.2
2017-07-18T02:43:53.992Z,49
2017-07-18T02:44:55.787Z,49.4
2017-07-18T02:45:57.587Z,49.3
2017-07-18T02:46:59.713Z,49.2
2017-07-18T02:48:01.520Z,49.1
2017-07-18T02:49:03.648Z,49.1
2017-07-18T02:50:05.449Z,49.1
2017-07-18T02:51:07.594Z,49.1
2017-07-18T02:52:09.390Z,49
2017-07-18T02:53:11.189Z,49.3
2017-07-18T02:54:13.319Z,49.3
2017-07-18T02:55:15.450Z,49.1
2017-07-18T02:56:17.252Z,49.4
2017-07-18T02:57:18.386Z,49.1
2017-07-18T02:58:20.521Z,49.1
2017-07-18T02:59:22.652Z,49
2017-07-18T03:00:24.806Z,49.3
2017-07-18T03:01:26.594Z,49.2
2017-07-18T03:02:28.726Z,49.1
2017-07-18T03:03:30.528Z,49.1
2017-07-18T03:04:32.663Z,49.1
2017-07-18T03:05:34.446Z,49.4
2017-07-18T03:06:35.913Z,49
2017-07-18T03:07:37.712Z,49.3
2017-07-18T03:08:39.844Z,49.5
2017-07-18T03:09:41.631Z,49.2
2017-07-18T03:10:43.075Z,49.2
2017-07-18T03:11:44.859Z,49.1
2017-07-18T03:12:46.640Z,49.5
2017-07-18T03:13:48.767Z,49.2
2017-07-18T03:14:50.897Z,49.2
2017-07-18T03:15:52.702Z,49.1
2017-07-18T03:16:54.171Z,49.4
2017-07-18T03:17:56.351Z,49.2
2017-07-18T03:18:58.490Z,49.5
2017-07-18T03:20:00.284Z,49.2
2017-07-18T03:21:02.415Z,49
2017-07-18T03:22:04.219Z,49.6
2017-07-18T03:23:05.719Z,49.6
2017-07-18T03:24:07.188Z,49.2
2017-07-18T03:25:08.655Z,49.2
2017-07-18T03:26:10.124Z,49.7
2017-07-18T03:27:12.249Z,49.3
2017-07-18T03:28:14.379Z,49.1
2017-07-18T03:29:16.512Z,49.1
2017-07-18T03:30:18.311Z,49.1
2017-07-18T03:31:20.445Z,49
2017-07-18T03:32:21.916Z,49.1
2017-07-18T03:33:23.371Z,49.5
2017-07-18T03:34:25.189Z,49.5
2017-07-18T03:35:27.322Z,49.1
2017-07-18T03:36:29.458Z,49.2
2017-07-18T03:37:31.234Z,49.2
2017-07-18T03:38:33.373Z,49.5
2017-07-18T03:39:35.502Z,49.3
2017-07-18T03:40:37.305Z,49.5
2017-07-18T03:41:38.760Z,49.2
2017-07-18T03:42:40.566Z,49.2
2017-07-18T03:43:42.368Z,49.5
2017-07-18T03:44:43.484Z,49.6
2017-07-18T03:45:45.614Z,49.1
2017-07-18T03:46:47.754Z,49.7
2017-07-18T03:47:49.886Z,49.2
2017-07-18T03:48:52.021Z,49.1
2017-07-18T03:49:53.491Z,49.1
2017-07-18T03:50:55.620Z,49
2017-07-18T03:51:57.750Z,49
2017-07-18T03:52:59.228Z,49.7
2017-07-18T03:54:01.365Z,49.3
2017-07-18T03:55:03.500Z,49.2
2017-07-18T03:56:05.279Z,49.2
2017-07-18T03:57:07.076Z,49.1
2017-07-18T03:58:09.205Z,49.2
2017-07-18T03:59:11.342Z,49.2
2017-07-18T04:00:13.474Z,49.2
2017-07-18T04:01:15.270Z,49.2
2017-07-18T04:02:17.081Z,49
2017-07-18T04:03:18.879Z,49
2017-07-18T04:04:21.064Z,49.2
2017-07-18T04:05:22.871Z,49.2
2017-07-18T04:06:25.005Z,49.2
2017-07-18T04:07:27.146Z,49.3
2017-07-18T04:08:28.613Z,49.1
2017-07-18T04:09:30.744Z,49.1
2017-07-18T04:10:32.547Z,49.2
2017-07-18T04:11:34.674Z,49.6
2017-07-18T04:12:36.809Z,49.3
2017-07-18T04:13:38.941Z,49.4
2017-07-18T04:14:41.079Z,49.2
2017-07-18T04:15:42.859Z,49
2017-07-18T04:16:44.301Z,49.2
2017-07-18T04:17:46.430Z,49.2
2017-07-18T04:18:48.232Z,49.3
2017-07-18T04:19:50.058Z,49.1
2017-07-18T04:20:52.176Z,49.3
2017-07-18T04:21:54.328Z,49.4
2017-07-18T04:22:56.118Z,49.1
2017-07-18T04:23:57.919Z,49.1
2017-07-18T04:25:00.053Z,49.2
2017-07-18T04:26:01.850Z,49.4
2017-07-18T04:27:03.308Z,49
2017-07-18T04:28:04.430Z,49.2
2017-07-18T04:29:05.875Z,49
2017-07-18T04:30:07.344Z,49.3
2017-07-18T04:31:08.864Z,48.9
2017-07-18T04:32:10.313Z,49.3
2017-07-18T04:33:12.095Z,49
2017-07-18T04:34:13.900Z,49.3
2017-07-18T04:35:15.017Z,49.1
2017-07-18T04:36:16.822Z,49.4
2017-07-18T04:37:18.606Z,49.2
2017-07-18T04:38:20.078Z,49.1
2017-07-18T04:39:21.924Z,49.1
2017-07-18T04:40:23.038Z,49.1
2017-07-18T04:41:24.492Z,49.2
2017-07-18T04:42:26.628Z,49
2017-07-18T04:43:28.438Z,49.2
2017-07-18T04:44:30.568Z,49
2017-07-18T04:45:32.371Z,49
2017-07-18T04:46:34.172Z,49.2
2017-07-18T04:47:36.301Z,49.3
2017-07-18T04:48:38.457Z,49
2017-07-18T04:49:40.249Z,49.2
2017-07-18T04:50:42.055Z,49.2
2017-07-18T04:51:44.190Z,49
2017-07-18T04:52:45.325Z,49.3
2017-07-18T04:53:47.454Z,49.1
2017-07-18T04:54:49.251Z,49.1
2017-07-18T04:55:51.398Z,49
2017-07-18T04:56:53.528Z,48.7
2017-07-18T04:57:55.333Z,48.9
2017-07-18T04:58:57.116Z,48.8
2017-07-18T04:59:58.561Z,48.7
2017-07-18T05:01:00.363Z,49
2017-07-18T05:02:02.162Z,49.1
2017-07-18T05:03:04.305Z,49
2017-07-18T05:04:06.098Z,48.7
2017-07-18T05:05:08.251Z,48.5
2017-07-18T05:06:10.066Z,48.6
2017-07-18T05:07:12.202Z,48.9
2017-07-18T05:08:14.002Z,48.2
2017-07-18T05:09:15.778Z,48
2017-07-18T05:10:17.580Z,47.6
2017-07-18T05:11:19.027Z,47.9
2017-07-18T05:12:20.804Z,47.9
2017-07-18T05:13:22.605Z,47.5
2017-07-18T05:14:23.720Z,47.5
2017-07-18T05:15:25.523Z,47.7
2017-07-18T05:16:27.299Z,47.7
2017-07-18T05:17:29.087Z,48.1
2017-07-18T05:18:31.219Z,47.9
2017-07-18T05:19:33.351Z,47.8
2017-07-18T05:20:34.817Z,47.9
2017-07-18T05:21:36.616Z,47.8
2017-07-18T05:22:38.751Z,47.7
2017-07-18T05:23:40.567Z,47.6
2017-07-18T05:24:42.348Z,47.6
2017-07-18T05:25:44.152Z,47.5
2017-07-18T05:26:45.951Z,47.2
2017-07-18T05:27:47.749Z,47.2
2017-07-18T05:28:49.205Z,47.4
2017-07-18T05:29:51.005Z,47.7
2017-07-18T05:30:53.141Z,47.8
2017-07-18T05:31:54.615Z,47.9
2017-07-18T05:32:56.419Z,48
2017-07-18T05:33:57.889Z,48.1
2017-07-18T05:35:00.026Z,47.9
2017-07-18T05:36:01.473Z,48.3
2017-07-18T05:37:02.613Z,48.3
2017-07-18T05:38:04.083Z,48.2
2017-07-18T05:39:05.855Z,47.9
2017-07-18T05:40:07.326Z,48.5
2017-07-18T05:41:09.128Z,48.1
2017-07-18T05:42:10.926Z,48.3
2017-07-18T05:43:12.373Z,48.2
2017-07-18T05:44:14.173Z,48.3
2017-07-18T05:45:16.305Z,48
2017-07-18T05:46:17.772Z,48.2
2017-07-18T05:47:19.569Z,48.2
2017-07-18T05:48:21.706Z,48.4
2017-07-18T05:49:23.506Z,48.4
2017-07-18T05:50:24.980Z,48.4
2017-07-18T05:51:26.449Z,48.1
2017-07-18T05:52:28.247Z,48.1
2017-07-18T05:53:30.056Z,48.2
2017-07-18T05:54:31.857Z,48.4
2017-07-18T05:55:33.988Z,48.2
2017-07-18T05:56:35.793Z,48.1
2017-07-18T05:57:37.930Z,48
2017-07-18T05:58:40.065Z,48.5
2017-07-18T05:59:41.534Z,48
2017-07-18T06:00:43.668Z,47.5
2017-07-18T06:01:45.475Z,48
2017-07-18T06:02:47.274Z,48.1
2017-07-18T06:03:49.075Z,47.8
2017-07-18T06:04:50.859Z,47.9
2017-07-18T06:05:52.994Z,48.4
2017-07-18T06:06:55.126Z,47.7
2017-07-18T06:07:56.927Z,47.8
2017-07-18T06:08:59.058Z,47.9
2017-07-18T06:10:00.857Z,48
2017-07-18T06:11:02.992Z,47.9
2017-07-18T06:12:05.126Z,47.5
2017-07-18T06:13:06.928Z,47.8
2017-07-18T06:14:08.728Z,47.3
2017-07-18T06:15:10.201Z,47.5
2017-07-18T06:16:12.001Z,47.3
2017-07-18T06:17:13.802Z,47.7
2017-07-18T06:18:15.283Z,47.7
2017-07-18T06:19:17.410Z,47.7
2017-07-18T06:20:18.882Z,47.4
2017-07-18T06:21:21.015Z,47.6
2017-07-18T06:22:22.816Z,47.3
2017-07-18T06:23:24.314Z,47.3
2017-07-18T06:24:26.448Z,47.7
2017-07-18T06:25:27.927Z,47.4
2017-07-18T06:26:29.736Z,47.5
2017-07-18T06:27:31.538Z,47.5
2017-07-18T06:28:33.022Z,47.4
2017-07-18T06:29:34.822Z,47.5
2017-07-18T06:30:36.296Z,47.3
2017-07-18T06:31:38.426Z,47.3
2017-07-18T06:32:39.894Z,47.7
2017-07-18T06:33:41.683Z,47.6
2017-07-18T06:34:43.153Z,47.4
2017-07-18T06:35:44.957Z,47.5
2017-07-18T06:36:46.405Z,47.5
2017-07-18T06:37:48.538Z,47.5
2017-07-18T06:38:50.339Z,47.4
2017-07-18T06:39:51.788Z,47.4
2017-07-18T06:40:53.589Z,47.5
2017-07-18T06:41:55.391Z,47.7
2017-07-18T06:42:57.176Z,47.6
2017-07-18T06:43:59.307Z,47.5
2017-07-18T06:45:01.093Z,47.3
2017-07-18T06:46:02.904Z,47.7
2017-07-18T06:47:04.374Z,47.4
2017-07-18T06:48:06.182Z,47.4
2017-07-18T06:49:08.320Z,47.5
2017-07-18T06:50:09.791Z,47.4
2017-07-18T06:51:11.586Z,47.2
2017-07-18T06:52:13.057Z,47.4
2017-07-18T06:53:14.863Z,47.2
2017-07-18T06:54:16.645Z,47.6
2017-07-18T06:55:18.443Z,47.4
2017-07-18T06:56:20.577Z,47.6
2017-07-18T06:57:22.027Z,47.6
2017-07-18T06:58:23.836Z,47.5
2017-07-18T06:59:25.636Z,47.4
2017-07-18T07:00:27.416Z,47.3
2017-07-18T07:01:29.196Z,47.2
2017-07-18T07:02:31.334Z,47.2
2017-07-18T07:03:33.466Z,47.2
2017-07-18T07:04:35.600Z,47.2
2017-07-18T07:05:37.047Z,47.1
2017-07-18T07:06:38.160Z,47.2
2017-07-18T07:07:39.633Z,47.3
2017-07-18T07:08:41.436Z,47
2017-07-18T07:09:43.236Z,47.2
2017-07-18T07:10:45.036Z,47.3
2017-07-18T07:11:46.494Z,47.3
2017-07-18T07:12:48.298Z,47.2
2017-07-18T07:13:50.109Z,47.1
2017-07-18T07:14:51.908Z,47.4
2017-07-18T07:15:54.041Z,47.3
2017-07-18T07:16:55.841Z,47.3
2017-07-18T07:17:57.297Z,47.3
2017-07-18T07:18:59.097Z,47.1
2017-07-18T07:20:01.238Z,47.1
2017-07-18T07:21:02.692Z,47.1
2017-07-18T07:22:04.164Z,47.1
2017-07-18T07:23:05.276Z,47.1
2017-07-18T07:24:07.408Z,47.1
2017-07-18T07:25:09.213Z,47.2
2017-07-18T07:26:11.016Z,47.3
2017-07-18T07:27:12.491Z,47.1
2017-07-18T07:28:14.290Z,47.1
2017-07-18T07:29:15.457Z,47.4
2017-07-18T07:30:16.911Z,47.1
2017-07-18T07:31:18.381Z,47.1
2017-07-18T07:32:20.522Z,47.1
2017-07-18T07:33:22.324Z,47.1
2017-07-18T07:34:23.439Z,47.1
2017-07-18T07:35:25.571Z,47.2
2017-07-18T07:36:26.686Z,47.2
2017-07-18T07:37:28.469Z,47.1
2017-07-18T07:38:29.612Z,47.2
2017-07-18T07:39:31.394Z,47.1
2017-07-18T07:40:32.865Z,47.1
2017-07-18T07:41:33.995Z,47.1
2017-07-18T07:42:36.134Z,47.2
2017-07-18T07:43:37.944Z,47.2
2017-07-18T07:44:40.080Z,47.3
2017-07-18T07:45:41.569Z,47.3
2017-07-18T07:46:43.006Z,47.1
2017-07-18T07:47:45.138Z,47.2
2017-07-18T07:48:46.942Z,47.1
2017-07-18T07:49:49.079Z,47.3
2017-07-18T07:50:50.887Z,47.2
2017-07-18T07:51:52.669Z,47.2
2017-07-18T07:52:54.800Z,47.2
2017-07-18T07:53:56.935Z,47.1
2017-07-18T07:54:58.834Z,47.4
2017-07-18T07:56:00.965Z,47.3
2017-07-18T07:57:02.744Z,47.3
2017-07-18T07:58:04.550Z,47.4
2017-07-18T07:59:06.682Z,47.3
2017-07-18T08:00:08.816Z,47.3
2017-07-18T08:01:10.635Z,47.2
2017-07-18T08:02:12.762Z,47.1
2017-07-18T08:03:14.895Z,47.1
2017-07-18T08:04:16.360Z,47.1
2017-07-18T08:05:17.825Z,47.4
2017-07-18T08:06:19.959Z,47.1
2017-07-18T08:07:22.097Z,47.2
2017-07-18T08:08:23.898Z,47.2
2017-07-18T08:09:25.699Z,47.1
2017-07-18T08:10:27.170Z,47.3
2017-07-18T08:11:28.285Z,47.2
2017-07-18T08:12:30.086Z,47.2
2017-07-18T08:13:31.556Z,47.1
2017-07-18T08:14:33.337Z,47.3
2017-07-18T08:15:35.472Z,47.3
2017-07-18T08:16:37.607Z,47.2
2017-07-18T08:17:39.090Z,47.2
2017-07-18T08:18:40.561Z,47.2
2017-07-18T08:19:42.339Z,47.2
2017-07-18T08:20:44.143Z,47.2
2017-07-18T08:21:46.271Z,47.2
2017-07-18T08:22:47.743Z,47.2
2017-07-18T08:23:49.200Z,47.2
2017-07-18T08:24:51.335Z,47.1
2017-07-18T08:25:53.466Z,47.2
2017-07-18T08:26:54.937Z,47.1
2017-07-18T08:27:56.392Z,47.1
2017-07-18T08:28:58.192Z,47.1
2017-07-18T08:30:00.331Z,47.1
2017-07-18T08:31:01.785Z,47.1
2017-07-18T08:32:03.567Z,47.3
2017-07-18T08:33:05.370Z,47.2
2017-07-18T08:34:06.822Z,47.1
2017-07-18T08:35:08.956Z,47.2
2017-07-18T08:36:11.092Z,47.2
2017-07-18T08:37:12.901Z,47.1
2017-07-18T08:38:14.675Z,47.1
2017-07-18T08:39:16.810Z,47.1
2017-07-18T08:40:18.614Z,47
2017-07-18T08:41:20.418Z,47.1
2017-07-18T08:42:22.231Z,47.1
2017-07-18T08:43:24.364Z,47
2017-07-18T08:44:26.500Z,47
2017-07-18T08:45:28.276Z,47
2017-07-18T08:46:30.079Z,47
2017-07-18T08:47:31.883Z,47
2017-07-18T08:48:33.683Z,47
2017-07-18T08:49:35.815Z,47.2
2017-07-18T08:50:37.980Z,46.9
2017-07-18T08:51:39.780Z,47
2017-07-18T08:52:41.914Z,47.1
2017-07-18T08:53:44.049Z,47
2017-07-18T08:54:45.521Z,47.3
2017-07-18T08:55:46.991Z,47
2017-07-18T08:56:48.794Z,47
2017-07-18T08:57:50.268Z,47
2017-07-18T08:58:52.403Z,47
2017-07-18T08:59:53.856Z,47
2017-07-18T09:00:55.987Z,46.9
2017-07-18T09:01:57.796Z,47.2
2017-07-18T09:02:59.941Z,47.2
2017-07-18T09:04:02.069Z,47.1
2017-07-18T09:05:03.870Z,47.1
2017-07-18T09:06:05.314Z,47.1
2017-07-18T09:07:07.117Z,47.1
2017-07-18T09:08:08.921Z,46.9
2017-07-18T09:09:10.726Z,47.1
2017-07-18T09:10:12.525Z,47.1
2017-07-18T09:11:14.325Z,46.9
2017-07-18T09:12:15.795Z,47.2
2017-07-18T09:13:17.597Z,47.1
2017-07-18T09:14:19.043Z,47
2017-07-18T09:15:20.842Z,47.1
2017-07-18T09:16:23.027Z,47
2017-07-18T09:17:24.475Z,47.1
2017-07-18T09:18:26.255Z,47
2017-07-18T09:19:28.392Z,47.1
2017-07-18T09:20:29.515Z,47.1
2017-07-18T09:21:31.292Z,47.1
2017-07-18T09:22:33.132Z,47
2017-07-18T09:23:35.275Z,47
2017-07-18T09:24:36.738Z,47.1
2017-07-18T09:25:38.543Z,47.1
2017-07-18T09:26:40.344Z,46.9
2017-07-18T09:27:42.129Z,47.1
2017-07-18T09:28:43.914Z,47.1
2017-07-18T09:29:45.694Z,47.2
2017-07-18T09:30:47.496Z,46.8
2017-07-18T09:31:49.277Z,47
2017-07-18T09:32:51.412Z,46.8
2017-07-18T09:33:53.546Z,47
2017-07-18T09:34:55.322Z,47
2017-07-18T09:35:57.465Z,46.8
2017-07-18T09:36:59.593Z,47.1
2017-07-18T09:38:01.065Z,46.8
2017-07-18T09:39:02.858Z,47.1
2017-07-18T09:40:04.309Z,47
2017-07-18T09:41:06.099Z,47.1
2017-07-18T09:42:07.898Z,46.9
2017-07-18T09:43:09.714Z,46.9
2017-07-18T09:44:11.848Z,47.1
2017-07-18T09:45:13.624Z,47
2017-07-18T09:46:15.431Z,47
2017-07-18T09:47:17.233Z,46.9
2017-07-18T09:48:18.682Z,46.9
2017-07-18T09:49:20.817Z,47.1
2017-07-18T09:50:22.600Z,46.9
2017-07-18T09:51:24.069Z,47.1
2017-07-18T09:52:26.210Z,46.9
2017-07-18T09:53:28.011Z,47
2017-07-18T09:54:29.810Z,47
2017-07-18T09:55:31.594Z,46.9
2017-07-18T09:56:33.395Z,46.9
2017-07-18T09:57:35.533Z,47
2017-07-18T09:58:37.675Z,47
2017-07-18T09:59:39.141Z,47.1
2017-07-18T10:00:40.944Z,47.1
2017-07-18T10:01:42.415Z,46.7
2017-07-18T10:02:44.268Z,46.9
2017-07-18T10:03:45.743Z,46.7
2017-07-18T10:04:47.522Z,47.1
2017-07-18T10:05:49.655Z,47.1
2017-07-18T10:06:51.116Z,47.1
2017-07-18T10:07:52.915Z,47
2017-07-18T10:08:54.700Z,46.9
2017-07-18T10:09:56.497Z,47.1
2017-07-18T10:10:57.635Z,46.9
2017-07-18T10:11:58.763Z,46.9
2017-07-18T10:13:00.900Z,46.9
2017-07-18T10:14:02.698Z,47
2017-07-18T10:15:04.148Z,47.1
2017-07-18T10:16:05.601Z,47
2017-07-18T10:17:07.069Z,46.8
2017-07-18T10:18:08.870Z,47
2017-07-18T10:19:10.654Z,46.7
2017-07-18T10:20:12.099Z,46.8
2017-07-18T10:21:14.245Z,47
2017-07-18T10:22:16.374Z,46.5
2017-07-18T10:23:18.509Z,46.6
2017-07-18T10:24:20.312Z,46.8
2017-07-18T10:25:22.114Z,47.1
2017-07-18T10:26:24.249Z,46.9
2017-07-18T10:27:26.044Z,46.8
2017-07-18T10:28:27.852Z,46.7
2017-07-18T10:29:29.646Z,46.5
2017-07-18T10:30:31.117Z,46.8
2017-07-18T10:31:32.920Z,46.7
2017-07-18T10:32:34.725Z,46.7
2017-07-18T10:33:36.179Z,46.6
2017-07-18T10:34:37.975Z,46.6
2017-07-18T10:35:39.441Z,46.8
2017-07-18T10:36:40.913Z,46.7
2017-07-18T10:37:42.387Z,46.7
2017-07-18T10:38:44.187Z,46.7
2017-07-18T10:39:45.304Z,46.6
2017-07-18T10:40:47.442Z,46.6
2017-07-18T10:41:49.245Z,46.8
2017-07-18T10:42:50.689Z,46.5
2017-07-18T10:43:52.491Z,46.7
2017-07-18T10:44:54.623Z,46.7
2017-07-18T10:45:56.424Z,46.7
2017-07-18T10:46:58.205Z,46.6
2017-07-18T10:48:00.003Z,46.6
2017-07-18T10:49:02.141Z,46.6
2017-07-18T10:50:03.274Z,46.8
2017-07-18T10:51:05.409Z,46.8
2017-07-18T10:52:07.587Z,46.6
2017-07-18T10:53:09.371Z,46.7
2017-07-18T10:54:10.816Z,46.6
2017-07-18T10:55:12.620Z,46.8
2017-07-18T10:56:14.416Z,46.6
2017-07-18T10:57:16.220Z,46.5
2017-07-18T10:58:17.671Z,46.5
2017-07-18T10:59:19.474Z,46.5
2017-07-18T11:00:20.944Z,46.5
2017-07-18T11:01:22.746Z,46.5
2017-07-18T11:02:24.545Z,46.5
2017-07-18T11:03:26.015Z,46.4
2017-07-18T11:04:28.148Z,46.4
2017-07-18T11:05:30.285Z,46.6
2017-07-18T11:06:32.128Z,46.4
2017-07-18T11:07:34.258Z,46.5
2017-07-18T11:08:36.044Z,46.5
2017-07-18T11:09:38.182Z,46.5
2017-07-18T11:10:39.990Z,46.9
2017-07-18T11:11:41.797Z,46.9
2017-07-18T11:12:43.928Z,46.4
2017-07-18T11:13:46.063Z,46.5
2017-07-18T11:14:47.643Z,46.5
2017-07-18T11:15:49.434Z,46.9
2017-07-18T11:16:51.569Z,46.7
2017-07-18T11:17:53.700Z,46.5
2017-07-18T11:18:55.501Z,46.9
2017-07-18T11:19:57.632Z,46.7
2017-07-18T11:20:59.083Z,46.9
2017-07-18T11:21:59.876Z,46.4
2017-07-18T11:23:01.675Z,46.5
2017-07-18T11:24:03.805Z,46.8
2017-07-18T11:25:05.962Z,46.9
2017-07-18T11:26:07.773Z,46.4
2017-07-18T11:27:09.584Z,46.9
2017-07-18T11:28:11.711Z,46.4
2017-07-18T11:29:13.516Z,46.4
2017-07-18T11:30:14.967Z,46.3
2017-07-18T11:31:17.117Z,46.4
2017-07-18T11:32:19.249Z,46.5
2017-07-18T11:33:21.384Z,46.9
2017-07-18T11:34:23.516Z,46.4
2017-07-18T11:35:25.308Z,46.5
2017-07-18T11:36:27.112Z,46.5
2017-07-18T11:37:28.557Z,46.5
2017-07-18T11:38:30.031Z,46.4
2017-07-18T11:39:31.488Z,46.9
2017-07-18T11:40:33.624Z,46.4
2017-07-18T11:41:35.429Z,46.4
2017-07-18T11:42:37.565Z,46.9
2017-07-18T11:43:39.036Z,46.5
2017-07-18T11:44:40.812Z,46.4
2017-07-18T11:45:42.948Z,46.6
2017-07-18T11:46:44.751Z,46.6
2017-07-18T11:47:46.883Z,46.5
2017-07-18T11:48:48.341Z,46.8
2017-07-18T11:49:50.120Z,46.4
2017-07-18T11:50:51.971Z,46.8
2017-07-18T11:51:53.437Z,46.5
2017-07-18T11:52:54.907Z,46.8
2017-07-18T11:53:56.374Z,46.7
2017-07-18T11:54:58.508Z,46.7
2017-07-18T11:56:00.313Z,46.5
2017-07-18T11:57:02.115Z,46.5
2017-07-18T11:58:04.244Z,46.5
2017-07-18T11:59:05.717Z,46.5
2017-07-18T12:00:07.859Z,46.5
2017-07-18T12:01:09.662Z,46.5
2017-07-18T12:02:11.796Z,46.5
2017-07-18T12:03:13.929Z,46.5
2017-07-18T12:04:15.728Z,46.4
2017-07-18T12:05:17.508Z,46.4
2017-07-18T12:06:19.644Z,46.5
2017-07-18T12:07:21.790Z,46.6
2017-07-18T12:08:23.930Z,46.5
2017-07-18T12:09:26.063Z,46.3
2017-07-18T12:10:28.199Z,46.6
2017-07-18T12:11:30.334Z,46.5
2017-07-18T12:12:31.802Z,46.5
2017-07-18T12:13:33.603Z,46.5
2017-07-18T12:14:35.738Z,46.6
2017-07-18T12:15:37.870Z,46.6
2017-07-18T12:16:40.002Z,46.5
2017-07-18T12:17:41.802Z,46.6
2017-07-18T12:18:43.579Z,46.5
2017-07-18T12:19:45.712Z,46.4
2017-07-18T12:20:47.512Z,46.6
2017-07-18T12:21:49.314Z,46.6
2017-07-18T12:22:50.782Z,46.5
2017-07-18T12:23:52.584Z,46.6
2017-07-18T12:24:54.715Z,46.5
2017-07-18T12:25:56.171Z,46.6
2017-07-18T12:26:57.970Z,46.5
2017-07-18T12:28:00.108Z,46.6
2017-07-18T12:29:02.251Z,46.5
2017-07-18T12:30:04.070Z,46.7
2017-07-18T12:31:06.230Z,46.5
2017-07-18T12:32:08.030Z,46.6
2017-07-18T12:33:10.165Z,46.7
2017-07-18T12:34:11.962Z,46.5
2017-07-18T12:35:13.767Z,46.7
2017-07-18T12:36:15.907Z,46.5
2017-07-18T12:37:18.039Z,46.8
2017-07-18T12:38:19.845Z,46.5
2017-07-18T12:39:21.316Z,46.7
2017-07-18T12:40:23.094Z,46.7
2017-07-18T12:41:24.560Z,46.7
2017-07-18T12:42:26.029Z,46.8
2017-07-18T12:43:28.163Z,46.7
2017-07-18T12:44:29.639Z,46.8
2017-07-18T12:45:31.454Z,46.8
2017-07-18T12:46:33.259Z,46.5
2017-07-18T12:47:35.408Z,46.6
2017-07-18T12:48:37.541Z,46.7
2017-07-18T12:49:39.339Z,46.5
2017-07-18T12:50:41.144Z,46.7
2017-07-18T12:51:42.944Z,46.8
2017-07-18T12:52:45.181Z,46.6
2017-07-18T12:53:46.978Z,46.5
2017-07-18T12:54:49.112Z,46.6
2017-07-18T12:55:51.248Z,46.8
2017-07-18T12:56:52.717Z,46.6
2017-07-18T12:57:54.517Z,46.7
2017-07-18T12:58:56.320Z,46.7
2017-07-18T12:59:58.121Z,46.7
2017-07-18T13:00:59.928Z,46.5
2017-07-18T13:02:01.729Z,46.8
2017-07-18T13:03:03.567Z,46.7
2017-07-18T13:04:05.707Z,46.8
2017-07-18T13:05:07.522Z,46.7
2017-07-18T13:06:09.655Z,46.7
2017-07-18T13:07:11.791Z,46.7
2017-07-18T13:08:13.588Z,46.7
2017-07-18T13:09:15.721Z,46.7
2017-07-18T13:10:17.517Z,46.8
2017-07-18T13:11:19.334Z,46.5
2017-07-18T13:12:21.135Z,46.6
2017-07-18T13:13:22.917Z,46.8
2017-07-18T13:14:24.720Z,46.5
2017-07-18T13:15:26.858Z,46.7
2017-07-18T13:16:28.326Z,46.8
2017-07-18T13:17:30.451Z,46.6
2017-07-18T13:18:32.586Z,46.7
2017-07-18T13:19:34.056Z,46.7
2017-07-18T13:20:35.848Z,46.8
2017-07-18T13:21:37.983Z,46.8
2017-07-18T13:22:39.789Z,46.5
2017-07-18T13:23:41.922Z,46.7
2017-07-18T13:24:43.698Z,46.7
2017-07-18T13:25:45.835Z,46.5
2017-07-18T13:26:47.618Z,46.5
2017-07-18T13:27:49.423Z,46.7
2017-07-18T13:28:50.541Z,46.6
2017-07-18T13:29:52.341Z,46.7
2017-07-18T13:30:54.145Z,46.7
2017-07-18T13:31:56.280Z,46.8
2017-07-18T13:32:57.750Z,46.7
2017-07-18T13:33:59.559Z,46.7
2017-07-18T13:35:00.993Z,46.6
2017-07-18T13:36:03.129Z,46.5
2017-07-18T13:37:05.260Z,46.5
2017-07-18T13:38:07.393Z,46.5
2017-07-18T13:39:09.196Z,46.6
2017-07-18T13:40:10.312Z,46.7
2017-07-18T13:41:12.118Z,46.6
2017-07-18T13:42:14.246Z,46.7
2017-07-18T13:43:16.055Z,46.7
2017-07-18T13:44:17.864Z,46.7
2017-07-18T13:45:19.672Z,46.8
2017-07-18T13:46:21.808Z,46.7
2017-07-18T13:47:23.608Z,46.5
2017-07-18T13:48:25.414Z,46.8
2017-07-18T13:49:27.210Z,46.6